Time;durP1;ratioP1;P1;durP2;ratioP2;P2;SDS_P1;SDS_P2;PMS_P1;PMS_P2;Temp;Humidity;BMP_temperature;BMP_pressure;BME280_temperature;BME280_humidity;BME280_pressure;Samples;Min_cycle;Max_cycle;Signal;HPM_P1;HPM_P2
2023/01/15 00:01:40;;;;;;;3.42;1.67;;;;;;;7.34;91.52;99399.75;5075176;28;20017;-76
2023/01/15 00:04:13;;;;;;;3.92;1.95;;;;;;;7.33;92.08;99403.06;5077076;28;20432;-76
2023/01/15 00:06:40;;;;;;;5.10;2.17;;;;;;;7.33;92.12;99386.81;5073204;28;20046;-77
2023/01/15 00:09:08;;;;;;;3.35;2.05;;;;;;;7.35;92.52;99403.38;5059793;28;20032;-77
2023/01/15 00:11:34;;;;;;;5.93;2.05;;;;;;;7.34;92.37;99388.38;5059630;28;20029;-77
2023/01/15 00:13:59;;;;;;;4.88;2.65;;;;;;;7.30;93.00;99367.91;5077205;28;20028;-76
2023/01/15 00:16:26;;;;;;;4.97;2.05;;;;;;;7.29;93.29;99363.50;5076681;28;20029;-76
2023/01/15 00:18:55;;;;;;;4.45;2.03;;;;;;;7.32;93.76;99356.06;5075585;28;20154;-75
2023/01/15 00:21:27;;;;;;;4.05;2.10;;;;;;;7.32;93.59;99362.53;5075377;28;20056;-76
2023/01/15 00:29:23;;;;;;;4.70;2.00;;;;;;;7.29;96.14;99346.47;5074693;28;20070;-76
2023/01/15 00:32:03;;;;;;;3.45;1.77;;;;;;;7.30;96.96;99361.44;5058761;28;20040;-76
2023/01/15 00:34:30;;;;;;;4.10;2.33;;;;;;;7.30;98.12;99359.41;5059331;28;20031;-76
2023/01/15 00:36:57;;;;;;;5.70;2.10;;;;;;;7.30;99.10;99338.72;5059461;28;20033;-77
2023/01/15 00:39:23;;;;;;;5.63;2.20;;;;;;;7.31;100.00;99354.50;5076716;28;20477;-77
2023/01/15 00:41:50;;;;;;;3.35;2.03;;;;;;;7.28;100.00;99341.25;5076990;28;20020;-76
2023/01/15 00:44:17;;;;;;;2.90;1.58;;;;;;;7.27;100.00;99340.50;5076961;28;20097;-77
2023/01/15 00:46:44;;;;;;;3.83;2.05;;;;;;;7.28;100.00;99329.91;5059124;28;20047;-76
2023/01/15 00:49:11;;;;;;;3.88;2.00;;;;;;;7.23;100.00;99330.59;5076566;28;20060;-76
2023/01/15 00:51:37;;;;;;;2.05;1.75;;;;;;;7.19;100.00;99330.81;5058722;28;20021;-76
2023/01/15 00:54:03;;;;;;;5.18;2.20;;;;;;;7.20;100.00;99320.22;5058516;28;20040;-76
2023/01/15 00:56:29;;;;;;;9.43;2.05;;;;;;;7.21;100.00;99321.81;5076833;28;20036;-76
2023/01/15 00:58:56;;;;;;;2.63;2.03;;;;;;;7.20;100.00;99309.66;5076626;28;20024;-76
2023/01/15 01:01:22;;;;;;;2.78;1.85;;;;;;;7.10;100.00;99302.53;5075133;28;20036;-76
2023/01/15 01:03:51;;;;;;;6.18;1.88;;;;;;;7.10;100.00;99305.38;5076604;28;20033;-77
2023/01/15 01:06:17;;;;;;;3.38;2.17;;;;;;;7.06;100.00;99311.25;5076306;28;20056;-76
2023/01/15 01:08:47;;;;;;;6.40;2.58;;;;;;;7.09;100.00;99289.59;5074884;28;20032;-76
2023/01/15 01:11:15;;;;;;;6.07;2.70;;;;;;;7.09;100.00;99270.50;5076114;28;20107;-77
2023/01/15 01:13:42;;;;;;;6.93;2.22;;;;;;;7.07;100.00;99275.91;5057141;28;20388;-76
2023/01/15 01:16:34;;;;;;;3.47;2.17;;;;;;;7.06;100.00;99276.38;5076452;28;20111;-76
2023/01/15 01:19:13;;;;;;;5.38;2.58;;;;;;;7.12;100.00;99280.09;5075941;28;20036;-76
2023/01/15 01:21:41;;;;;;;3.90;1.73;;;;;;;7.12;100.00;99276.47;5076199;28;20024;-76
2023/01/15 01:24:10;;;;;;;3.22;2.30;;;;;;;7.10;100.00;99265.59;5058401;28;20139;-76
2023/01/15 01:26:36;;;;;;;5.25;1.85;;;;;;;7.06;100.00;99265.81;5058296;28;20036;-75
2023/01/15 01:29:17;;;;;;;5.57;2.30;;;;;;;7.04;100.00;99265.50;5075483;28;20050;-77
2023/01/15 01:31:44;;;;;;;4.83;2.10;;;;;;;7.05;100.00;99254.94;5076018;28;20043;-76
2023/01/15 01:34:11;;;;;;;3.13;1.95;;;;;;;7.03;100.00;99246.91;5075786;28;20104;-76
2023/01/15 01:36:40;;;;;;;3.03;2.15;;;;;;;7.02;100.00;99253.88;5058143;28;20045;-77
2023/01/15 01:39:09;;;;;;;2.55;1.58;;;;;;;6.99;100.00;99240.66;5041548;28;20131;-76
2023/01/15 01:41:34;;;;;;;4.32;2.03;;;;;;;7.01;100.00;99249.47;5041695;28;20112;-76
2023/01/15 01:44:05;;;;;;;4.07;1.90;;;;;;;7.03;100.00;99243.28;5076293;28;20107;-77
2023/01/15 01:46:33;;;;;;;3.42;1.90;;;;;;;7.05;100.00;99235.84;5075538;28;20119;-76
2023/01/15 01:49:08;;;;;;;2.83;1.73;;;;;;;7.06;100.00;99245.94;5057872;28;20470;-77
2023/01/15 01:51:47;;;;;;;2.42;2.03;;;;;;;7.09;100.00;99229.94;5041920;28;20028;-76
2023/01/15 01:54:17;;;;;;;2.97;2.00;;;;;;;7.06;100.00;99228.88;5075546;28;20039;-75
2023/01/15 01:56:42;;;;;;;2.80;1.67;;;;;;;7.09;100.00;99224.25;5075566;28;20028;-77
2023/01/15 01:59:08;;;;;;;4.78;2.33;;;;;;;7.10;100.00;99223.00;5057673;28;20025;-77
2023/01/15 02:01:35;;;;;;;3.00;2.08;;;;;;;7.09;100.00;99225.03;5057398;28;20020;-76
2023/01/15 02:04:01;;;;;;;4.40;2.15;;;;;;;7.14;100.00;99219.94;5075229;28;20036;-77
2023/01/15 02:06:28;;;;;;;3.30;1.90;;;;;;;7.17;100.00;99222.59;5057532;28;20048;-76
2023/01/15 02:08:54;;;;;;;4.75;2.22;;;;;;;7.15;100.00;99210.91;5075694;28;20031;-77
2023/01/15 02:11:22;;;;;;;4.22;2.22;;;;;;;7.18;100.00;99211.97;5074616;28;20460;-77
2023/01/15 02:14:02;;;;;;;3.38;2.13;;;;;;;7.17;100.00;99191.34;5057548;28;20040;-77
2023/01/15 02:16:37;;;;;;;5.60;2.00;;;;;;;7.14;100.00;99198.00;5075122;28;20028;-76
2023/01/15 02:19:30;;;;;;;4.47;1.95;;;;;;;7.12;100.00;99194.88;5075357;28;20028;-76
2023/01/15 02:22:10;;;;;;;2.45;1.63;;;;;;;7.07;100.00;99206.94;5076440;28;20476;-77
2023/01/15 02:24:48;;;;;;;5.55;1.98;;;;;;;7.05;100.00;99206.66;5076176;28;20119;-76
2023/01/15 02:27:17;;;;;;;2.67;1.50;;;;;;;7.06;100.00;99200.50;5076689;28;20039;-76
2023/01/15 02:29:58;;;;;;;3.42;2.50;;;;;;;7.07;100.00;99198.44;5072743;28;20055;-75
2023/01/15 02:32:31;;;;;;;4.67;2.17;;;;;;;7.16;100.00;99200.34;5073264;28;20028;-76
2023/01/15 02:35:16;;;;;;;4.70;1.95;;;;;;;7.11;100.00;99187.63;5074134;28;20033;-76
2023/01/15 02:37:54;;;;;;;4.20;1.85;;;;;;;7.17;100.00;99176.34;5075003;28;20032;-76
2023/01/15 02:40:22;;;;;;;2.53;1.67;;;;;;;7.12;100.00;99169.31;5056697;28;20031;-76
2023/01/15 02:42:49;;;;;;;3.10;1.80;;;;;;;7.11;100.00;99179.13;5056770;28;20025;-77
2023/01/15 02:45:29;;;;;;;2.67;1.75;;;;;;;7.07;100.00;99187.06;5073342;28;20107;-76
2023/01/15 02:47:58;;;;;;;3.80;2.53;;;;;;;7.05;100.00;99181.09;5073161;28;20389;-75
2023/01/15 02:50:31;;;;;;;2.28;1.73;;;;;;;7.05;100.00;99200.97;5073566;28;20081;-76
2023/01/15 02:53:02;;;;;;;3.05;1.58;;;;;;;7.08;100.00;99188.59;5056609;28;20029;-76
2023/01/15 02:55:34;;;;;;;1.90;1.70;;;;;;;7.09;100.00;99170.28;5073445;28;20028;-75
2023/01/15 02:58:19;;;;;;;2.22;1.90;;;;;;;7.10;100.00;99169.81;5073439;28;20081;-75
2023/01/15 03:00:48;;;;;;;2.20;1.73;;;;;;;7.12;100.00;99169.31;5074499;28;20115;-76
2023/01/15 03:03:51;;;;;;;2.75;1.70;;;;;;;7.11;100.00;99173.44;5072657;28;20050;-76
2023/01/15 03:06:23;;;;;;;2.10;1.30;;;;;;;7.17;100.00;99165.78;4976566;28;20054;-76
2023/01/15 03:08:49;;;;;;;1.77;1.50;;;;;;;7.19;100.00;99160.34;4992848;28;20177;-77
2023/01/15 03:11:28;;;;;;;3.47;1.60;;;;;;;7.20;100.00;99166.81;4992686;28;20081;-77
2023/01/15 03:14:40;;;;;;;1.90;1.60;;;;;;;7.18;100.00;99146.63;5014288;28;20441;-76
2023/01/15 03:17:21;;;;;;;3.08;1.48;;;;;;;7.15;100.00;99128.53;4999518;28;20061;-77
2023/01/15 03:19:55;;;;;;;3.72;1.48;;;;;;;7.15;100.00;99133.44;5072687;28;20043;-77
2023/01/15 03:22:31;;;;;;;1.83;1.48;;;;;;;7.12;100.00;99132.38;5072955;28;20090;-77
2023/01/15 03:25:10;;;;;;;2.58;1.55;;;;;;;7.18;100.00;99123.91;5072768;28;20084;-75
2023/01/15 03:27:37;;;;;;;2.47;1.75;;;;;;;7.16;100.00;99100.91;5073761;28;20026;-76
2023/01/15 03:30:07;;;;;;;2.65;1.17;;;;;;;7.18;100.00;99099.13;5094277;28;20032;-75
2023/01/15 03:32:35;;;;;;;2.40;1.75;;;;;;;7.19;100.00;99106.38;5059476;28;20032;-77
2023/01/15 03:35:02;;;;;;;1.83;1.73;;;;;;;7.23;100.00;99129.66;5093947;28;20476;-79
2023/01/15 03:37:37;;;;;;;3.33;1.90;;;;;;;7.24;100.00;99141.81;5076030;28;20032;-76
2023/01/15 03:40:06;;;;;;;2.58;1.60;;;;;;;7.30;100.00;99139.81;5076078;28;20020;-77
2023/01/15 03:43:39;;;;;;;2.38;1.20;;;;;;;7.36;100.00;99143.50;5075691;28;20376;-77
2023/01/15 03:45:36;;;;;;;1.77;1.30;;;;;;;7.32;100.00;99123.06;5078205;28;20043;-77
2023/01/15 03:48:25;;;;;;;2.15;1.38;;;;;;;7.34;100.00;99124.13;5075724;28;20031;-77
2023/01/15 03:51:01;;;;;;;2.08;1.50;;;;;;;7.19;100.00;99109.22;5058876;28;20028;-75
2023/01/15 03:53:52;;;;;;;2.65;1.20;;;;;;;7.27;100.00;99135.16;5092922;28;20488;-76
2023/01/15 03:56:28;;;;;;;4.05;1.40;;;;;;;7.21;100.00;99129.41;5061812;28;20024;-76
2023/01/15 03:59:06;;;;;;;2.67;1.35;;;;;;;7.18;100.00;99119.00;5059517;28;20081;-77
2023/01/15 04:01:38;;;;;;;2.30;1.33;;;;;;;7.22;100.00;99128.13;5093506;28;20027;-76
2023/01/15 04:04:05;;;;;;;1.25;1.15;;;;;;;7.26;100.00;99125.06;5059038;28;20388;-77
2023/01/15 04:06:41;;;;;;;2.47;1.60;;;;;;;7.27;100.00;99124.56;5058992;28;20149;-77
2023/01/15 04:09:09;;;;;;;2.08;1.05;;;;;;;7.33;100.00;99125.38;5058757;28;20112;-76
2023/01/15 04:11:36;;;;;;;1.50;0.70;;;;;;;7.38;100.00;99126.72;5075885;28;20020;-77
2023/01/15 04:14:02;;;;;;;1.30;1.13;;;;;;;7.40;100.00;99119.28;5093529;28;20039;-75
2023/01/15 04:16:30;;;;;;;1.52;1.17;;;;;;;7.45;100.00;99118.56;5075475;28;20525;-77
2023/01/15 04:18:56;;;;;;;1.20;1.10;;;;;;;7.45;100.00;99107.19;5058918;28;20369;-76
2023/01/15 04:21:30;;;;;;;1.30;1.20;;;;;;;7.46;100.00;99102.28;5092672;28;20530;-77
2023/01/15 04:23:56;;;;;;;2.15;1.10;;;;;;;7.43;100.00;99106.91;5093707;28;20024;-77
2023/01/15 04:26:25;;;;;;;2.47;1.40;;;;;;;7.34;100.00;99094.91;5092862;28;20119;-76
2023/01/15 04:28:51;;;;;;;3.03;1.50;;;;;;;7.21;100.00;99094.53;5093060;28;20576;-77
2023/01/15 04:31:18;;;;;;;1.90;0.90;;;;;;;7.07;100.00;99093.34;5092435;28;20029;-77
2023/01/15 04:33:45;;;;;;;1.85;1.13;;;;;;;7.02;100.00;99099.72;5093590;28;20480;-77
2023/01/15 04:36:13;;;;;;;1.58;1.30;;;;;;;6.79;100.00;99104.34;5093495;28;20539;-77
2023/01/15 04:38:39;;;;;;;2.00;1.27;;;;;;;6.71;100.00;99103.22;5093559;28;20020;-75
2023/01/15 04:44:06;;;;;;;2.60;1.67;;;;;;;6.56;100.00;99094.75;5093678;28;20093;-77
2023/01/15 04:46:44;;;;;;;1.38;1.27;;;;;;;6.50;100.00;99098.78;5093622;28;20023;-76
2023/01/15 04:49:15;;;;;;;2.20;1.50;;;;;;;6.44;100.00;99104.38;5063427;28;20065;-79
2023/01/15 04:51:41;;;;;;;3.60;1.98;;;;;;;6.44;100.00;99092.22;5097530;28;20026;-76
2023/01/15 04:54:08;;;;;;;1.90;1.80;;;;;;;6.39;100.00;99087.25;5078918;28;20028;-78
2023/01/15 04:56:41;;;;;;;2.45;1.58;;;;;;;6.37;100.00;99082.09;5096191;28;20027;-78
2023/01/15 04:59:07;;;;;;;1.15;1.13;;;;;;;6.37;100.00;99092.66;5094945;28;20039;-77
2023/01/15 05:01:33;;;;;;;4.13;2.15;;;;;;;6.37;100.00;99076.44;5094541;28;20460;-77
2023/01/15 05:03:59;;;;;;;2.65;1.60;;;;;;;6.39;100.00;99070.25;5076092;28;20426;-77
2023/01/15 05:06:25;;;;;;;4.30;1.83;;;;;;;6.35;100.00;99075.34;5094524;28;20024;-76
2023/01/15 05:08:51;;;;;;;1.65;1.33;;;;;;;6.38;100.00;99077.22;5094607;28;20486;-77
2023/01/15 05:11:16;;;;;;;2.70;1.73;;;;;;;6.33;100.00;99070.19;5059471;28;20024;-77
2023/01/15 05:13:42;;;;;;;7.13;1.92;;;;;;;6.35;100.00;99064.00;5096651;28;20073;-77
2023/01/15 05:16:14;;;;;;;4.45;1.90;;;;;;;6.35;100.00;99061.94;5096653;28;20495;-77
2023/01/15 05:18:41;;;;;;;3.33;1.45;;;;;;;6.32;100.00;99056.50;5096812;28;20024;-77
2023/01/15 05:21:13;;;;;;;3.22;2.03;;;;;;;6.31;100.00;99043.56;5096507;28;20024;-77
2023/01/15 05:23:38;;;;;;;1.55;1.45;;;;;;;6.29;100.00;99046.09;5096358;28;20472;-77
2023/01/15 05:26:04;;;;;;;2.40;1.70;;;;;;;6.28;100.00;99059.50;5078086;28;20027;-77
2023/01/15 05:28:29;;;;;;;2.65;2.22;;;;;;;6.25;100.00;99057.66;5095956;28;20042;-77
2023/01/15 05:30:54;;;;;;;2.30;1.60;;;;;;;6.34;100.00;99051.13;5096091;28;20067;-77
2023/01/15 05:33:20;;;;;;;2.25;1.63;;;;;;;6.34;100.00;99054.69;5096417;28;20047;-77
2023/01/15 05:35:46;;;;;;;2.80;2.03;;;;;;;6.36;100.00;99057.06;5096223;28;20028;-76
2023/01/15 05:38:11;;;;;;;2.83;1.70;;;;;;;6.38;100.00;99063.81;5096304;28;20024;-77
2023/01/15 05:40:36;;;;;;;2.80;1.85;;;;;;;6.41;100.00;99054.28;5096136;28;20480;-76
2023/01/15 05:43:02;;;;;;;3.13;1.58;;;;;;;6.41;100.00;99062.03;5095832;28;20020;-77
2023/01/15 05:45:27;;;;;;;1.80;1.65;;;;;;;6.40;100.00;99052.72;5095906;28;20028;-77
2023/01/15 05:47:53;;;;;;;2.17;1.48;;;;;;;6.40;100.00;99064.06;5096016;28;20035;-77
2023/01/15 05:50:18;;;;;;;3.15;1.85;;;;;;;6.42;100.00;99061.53;5077564;28;20430;-77
2023/01/15 05:52:43;;;;;;;2.38;1.83;;;;;;;6.40;100.00;99066.91;5095858;28;20140;-78
2023/01/15 05:55:09;;;;;;;2.67;1.40;;;;;;;6.40;100.00;99058.41;5095737;28;20426;-78
2023/01/15 05:57:34;;;;;;;2.83;1.88;;;;;;;6.37;100.00;99076.44;5095573;28;20461;-77
2023/01/15 06:00:00;;;;;;;2.03;1.70;;;;;;;6.35;100.00;99069.66;5094534;28;20031;-77
2023/01/15 06:02:25;;;;;;;3.80;1.55;;;;;;;6.35;100.00;99081.81;5077611;28;20024;-77
2023/01/15 06:04:51;;;;;;;3.95;2.10;;;;;;;6.30;100.00;99076.84;5094827;28;20058;-77
2023/01/15 06:07:18;;;;;;;3.70;1.90;;;;;;;6.33;100.00;99095.72;5095159;28;20032;-78
2023/01/15 06:09:44;;;;;;;2.38;1.80;;;;;;;6.35;100.00;99078.97;5095466;28;20028;-77
2023/01/15 06:12:11;;;;;;;3.47;1.40;;;;;;;6.38;100.00;99080.03;5095423;28;20012;-77
2023/01/15 06:14:38;;;;;;;2.65;1.90;;;;;;;6.37;100.00;99084.94;5095413;28;20024;-76
2023/01/15 06:17:05;;;;;;;2.22;1.63;;;;;;;6.35;100.00;99081.81;5094343;28;20056;-77
2023/01/15 06:19:32;;;;;;;3.17;1.95;;;;;;;6.33;100.00;99086.41;5095458;28;20024;-79
2023/01/15 06:21:58;;;;;;;4.18;2.03;;;;;;;6.34;100.00;99088.75;5077392;28;20056;-77
2023/01/15 06:24:25;;;;;;;4.53;2.05;;;;;;;6.33;100.00;99089.25;5094144;28;20042;-77
2023/01/15 06:26:52;;;;;;;2.35;1.75;;;;;;;6.29;100.00;99080.16;5095272;28;20407;-77
2023/01/15 06:29:20;;;;;;;3.90;1.77;;;;;;;6.29;100.00;99083.75;5094692;28;20052;-79
2023/01/15 06:31:48;;;;;;;3.08;2.00;;;;;;;6.33;100.00;99083.59;5093764;28;20384;-80
2023/01/15 06:34:14;;;;;;;3.67;1.67;;;;;;;6.35;100.00;99083.84;5094744;28;20016;-79
2023/01/15 06:36:40;;;;;;;1.95;1.60;;;;;;;6.40;100.00;99097.34;5094712;28;20395;-80
2023/01/15 06:39:05;;;;;;;2.03;1.65;;;;;;;6.41;100.00;99087.56;5094030;28;20028;-79
2023/01/15 06:47:21;;;;;;;2.33;1.65;;;;;;;6.45;100.00;99066.22;5089161;28;20105;-79
2023/01/15 06:49:50;;;;;;;3.08;1.80;;;;;;;6.45;100.00;99068.28;5060407;28;20069;-78
2023/01/15 06:52:15;;;;;;;2.33;1.52;;;;;;;6.42;100.00;99057.91;5056462;28;20029;-78
2023/01/15 06:54:41;;;;;;;3.25;1.65;;;;;;;6.39;100.00;99050.38;5056336;28;20043;-81
2023/01/15 06:57:07;;;;;;;2.25;1.45;;;;;;;6.43;100.00;99053.81;5073772;28;20055;-78
2023/01/15 06:59:35;;;;;;;2.47;1.60;;;;;;;6.46;100.00;99050.75;5039466;28;20028;-78
2023/01/15 07:02:13;;;;;;;3.78;2.00;;;;;;;6.45;100.00;99052.03;5074163;28;20032;-79
2023/01/15 07:04:46;;;;;;;3.08;2.25;;;;;;;6.44;100.00;99050.47;5073925;28;20486;-78
2023/01/15 07:07:15;;;;;;;2.75;1.83;;;;;;;6.41;100.00;99056.34;5074406;28;20564;-76
2023/01/15 07:09:41;;;;;;;2.33;1.70;;;;;;;6.37;100.00;99059.41;5039628;28;20032;-77
2023/01/15 07:12:08;;;;;;;5.13;2.00;;;;;;;6.44;100.00;99078.84;5074144;28;20024;-77
2023/01/15 07:14:35;;;;;;;2.50;2.05;;;;;;;6.43;100.00;99053.81;5069024;28;20020;-75
2023/01/15 07:17:15;;;;;;;2.08;1.48;;;;;;;6.42;100.00;99050.19;5094162;28;20019;-78
2023/01/15 07:19:43;;;;;;;2.08;1.50;;;;;;;6.51;100.00;99054.94;5075972;28;20020;-81
2023/01/15 07:22:09;;;;;;;2.78;1.80;;;;;;;6.54;100.00;99045.44;5072286;28;20028;-78
2023/01/15 07:24:35;;;;;;;4.25;2.50;;;;;;;6.52;100.00;99050.84;5082338;28;20028;-78
2023/01/15 07:27:01;;;;;;;3.35;1.88;;;;;;;6.53;100.00;99043.88;5090549;28;20385;-79
2023/01/15 07:29:28;;;;;;;2.40;1.90;;;;;;;6.60;100.00;99034.94;5072038;28;20049;-79
2023/01/15 07:31:55;;;;;;;2.85;1.70;;;;;;;6.68;100.00;99038.13;5072349;28;20021;-79
2023/01/15 07:34:21;;;;;;;2.47;1.80;;;;;;;6.75;100.00;99049.84;5072696;28;20079;-79
2023/01/15 07:36:49;;;;;;;2.85;1.70;;;;;;;6.94;100.00;99041.78;5071185;28;20024;-78
2023/01/15 07:39:14;;;;;;;2.47;1.83;;;;;;;7.01;100.00;99041.38;5064701;28;20111;-78
2023/01/15 07:50:29;;;;;;;2.38;1.70;;;;;;;7.30;100.00;99029.00;5064454;28;20044;-79
2023/01/15 07:52:57;;;;;;;2.38;1.70;;;;;;;7.34;100.00;99021.03;5073467;28;20052;-76
2023/01/15 07:55:23;;;;;;;3.65;2.60;;;;;;;7.37;100.00;99011.53;5054154;28;20037;-77
2023/01/15 07:57:53;;;;;;;3.60;2.38;;;;;;;7.35;100.00;99020.53;5060357;28;20028;-77
2023/01/15 08:00:27;;;;;;;7.35;2.50;;;;;;;7.40;100.00;99019.03;5060790;28;20039;-75
2023/01/15 08:02:55;;;;;;;4.90;2.35;;;;;;;7.41;100.00;99007.16;5055754;28;20040;-78
2023/01/15 08:05:22;;;;;;;5.72;2.83;;;;;;;7.42;100.00;99017.22;5054375;28;20029;-81
2023/01/15 08:07:49;;;;;;;3.28;2.13;;;;;;;7.39;100.00;98992.69;5053881;28;20473;-80
2023/01/15 08:10:15;;;;;;;2.95;1.95;;;;;;;7.42;100.00;99003.03;5053093;28;20421;-81
2023/01/15 08:15:31;;;;;;;3.97;2.47;;;;;;;7.46;100.00;98986.53;5065242;28;20047;-80
2023/01/15 08:17:56;;;;;;;2.70;2.05;;;;;;;7.52;100.00;98997.97;5054728;28;20171;-78
2023/01/15 08:20:24;;;;;;;2.55;2.00;;;;;;;7.44;100.00;98968.44;5054590;28;20053;-78
2023/01/15 08:22:54;;;;;;;3.75;1.92;;;;;;;7.54;100.00;98981.94;5054379;28;20024;-79
2023/01/15 08:25:23;;;;;;;2.45;2.13;;;;;;;7.59;100.00;98993.88;5056163;28;20474;-78
2023/01/15 08:27:48;;;;;;;2.60;2.00;;;;;;;7.58;100.00;98998.78;5058134;28;20465;-75
2023/01/15 08:30:21;;;;;;;4.47;1.90;;;;;;;7.60;100.00;98998.28;5076941;28;20028;-79
2023/01/15 08:32:51;;;;;;;2.08;1.88;;;;;;;7.62;100.00;98987.94;5077234;28;20141;-77
2023/01/15 08:35:17;;;;;;;2.58;1.80;;;;;;;7.68;100.00;98985.94;5058039;28;20039;-78
2023/01/15 08:37:43;;;;;;;4.18;2.15;;;;;;;7.68;100.00;98985.16;5075001;28;20037;-78
2023/01/15 08:40:10;;;;;;;3.65;2.35;;;;;;;7.73;100.00;99002.25;5061074;28;20033;-79
2023/01/15 08:42:35;;;;;;;3.30;2.30;;;;;;;7.71;100.00;98978.47;5076068;28;20077;-79
2023/01/15 08:45:11;;;;;;;2.40;1.80;;;;;;;7.71;100.00;98978.47;5041735;28;20040;-77
2023/01/15 08:47:37;;;;;;;3.00;2.03;;;;;;;7.71;100.00;98973.56;5058316;28;20028;-76
2023/01/15 08:50:04;;;;;;;2.72;1.73;;;;;;;7.76;100.00;98987.03;5057424;28;20032;-76
2023/01/15 08:52:29;;;;;;;2.42;1.90;;;;;;;7.69;100.00;98981.03;5059071;28;20024;-78
2023/01/15 08:54:56;;;;;;;2.47;2.08;;;;;;;7.74;100.00;98968.91;5076766;28;20356;-78
2023/01/15 08:57:24;;;;;;;2.67;2.40;;;;;;;7.69;100.00;98981.03;5075554;28;20496;-80
2023/01/15 08:59:51;;;;;;;2.50;2.30;;;;;;;7.71;100.00;98982.09;5076567;28;20063;-77
2023/01/15 09:02:17;;;;;;;2.88;2.15;;;;;;;7.71;100.00;98982.09;5076624;28;20028;-79
2023/01/15 09:04:43;;;;;;;3.45;2.47;;;;;;;7.75;100.00;98987.53;5076441;28;20025;-77
2023/01/15 09:07:17;;;;;;;3.22;2.30;;;;;;;7.73;100.00;98970.19;5076169;28;20097;-80
2023/01/15 09:09:46;;;;;;;3.22;2.00;;;;;;;7.73;100.00;98968.13;5041662;28;20037;-80
2023/01/15 09:12:12;;;;;;;3.33;1.98;;;;;;;7.81;100.00;98988.38;5058427;28;20029;-77
2023/01/15 09:14:39;;;;;;;3.63;2.45;;;;;;;7.87;100.00;98981.41;5075196;28;20060;-82
2023/01/15 09:17:05;;;;;;;3.40;2.10;;;;;;;7.87;100.00;98974.94;5073984;28;20385;-83
2023/01/15 09:19:31;;;;;;;2.63;2.00;;;;;;;7.82;100.00;98976.47;5076182;28;20040;-84
2023/01/15 09:21:56;;;;;;;2.40;2.15;;;;;;;7.86;100.00;98974.19;5076368;28;20016;-79
2023/01/15 09:24:21;;;;;;;3.60;1.80;;;;;;;7.87;100.00;98966.41;5075817;28;20032;-78
2023/01/15 09:26:51;;;;;;;2.83;1.80;;;;;;;7.91;100.00;98958.44;5076154;28;20031;-80
2023/01/15 09:29:19;;;;;;;2.15;1.80;;;;;;;7.88;100.00;98967.97;5066700;28;20390;-77
2023/01/15 09:31:47;;;;;;;2.55;1.83;;;;;;;7.92;100.00;98980.66;5056041;28;20037;-78
2023/01/15 09:34:21;;;;;;;2.40;2.15;;;;;;;7.95;100.00;98967.50;5054865;28;20016;-81
2023/01/15 09:36:49;;;;;;;2.75;1.73;;;;;;;7.93;100.00;98947.31;5055950;28;20421;-78
2023/01/15 09:39:18;;;;;;;1.83;1.55;;;;;;;7.95;100.00;98959.75;5055564;28;20039;-80
2023/01/15 09:42:20;;;;;;;2.55;1.90;;;;;;;7.96;100.00;98978.38;5056310;28;20017;-78
2023/01/15 09:45:08;;;;;;;2.95;2.22;;;;;;;7.97;100.00;98965.69;5055772;28;20115;-80
2023/01/15 09:47:37;;;;;;;2.78;1.80;;;;;;;7.90;100.00;98951.97;5056272;28;20020;-82
2023/01/15 09:50:12;;;;;;;2.13;1.63;;;;;;;8.05;100.00;98963.19;5054598;28;20036;-82
2023/01/15 09:53:32;;;;;;;3.72;2.58;;;;;;;8.07;100.00;98969.13;5056120;28;20527;-85
2023/01/15 09:56:00;;;;;;;2.65;1.80;;;;;;;8.08;100.00;98962.16;5033885;28;20037;-83
2023/01/15 09:58:49;;;;;;;2.53;2.15;;;;;;;8.07;100.00;98966.28;5016947;28;20521;-79
2023/01/15 10:01:30;;;;;;;4.18;1.83;;;;;;;8.08;100.00;98982.06;5032743;28;20541;-77
2023/01/15 10:04:14;;;;;;;1.60;1.35;;;;;;;8.12;100.00;98968.38;5032480;28;20398;-74
2023/01/15 10:06:47;;;;;;;3.47;1.98;;;;;;;8.14;100.00;98968.66;5032349;28;20056;-75
2023/01/15 10:09:36;;;;;;;2.95;2.28;;;;;;;8.22;100.00;98968.97;5020895;28;20053;-76
2023/01/15 10:15:18;;;;;;;3.08;2.22;;;;;;;8.31;100.00;98965.94;5005705;28;20083;-76
2023/01/15 10:17:52;;;;;;;12.55;2.35;;;;;;;8.31;100.00;98966.69;5038496;28;20035;-76
2023/01/15 10:20:25;;;;;;;4.25;2.38;;;;;;;8.33;100.00;98955.59;5019935;28;20056;-77
2023/01/15 10:23:00;;;;;;;3.85;2.33;;;;;;;8.39;100.00;98955.63;5052385;28;20053;-75
2023/01/15 10:25:40;;;;;;;2.60;2.00;;;;;;;8.38;100.00;98949.13;5054327;28;20033;-74
2023/01/15 10:28:23;;;;;;;4.30;2.67;;;;;;;8.36;100.00;98950.97;5078422;28;20079;-76
2023/01/15 10:30:56;;;;;;;2.85;2.10;;;;;;;8.29;100.00;98957.91;5076306;28;20405;-73
2023/01/15 10:33:40;;;;;;;2.88;1.95;;;;;;;8.26;100.00;98947.53;5060217;28;20063;-74
2023/01/15 10:36:40;;;;;;;3.22;1.92;;;;;;;8.14;100.00;98925.97;5095198;28;20034;-74
2023/01/15 10:39:54;;;;;;;3.67;2.33;;;;;;;8.16;100.00;98937.63;5093740;28;20106;-77
2023/01/15 10:42:44;;;;;;;3.60;2.08;;;;;;;8.14;100.00;98917.44;5094648;28;20509;-77
2023/01/15 10:45:44;;;;;;;2.78;1.65;;;;;;;8.13;100.00;98910.19;5093080;28;20081;-78
2023/01/15 10:48:32;;;;;;;2.80;2.13;;;;;;;8.10;100.00;98902.69;5093986;28;20504;-77
2023/01/15 10:51:01;;;;;;;3.00;2.08;;;;;;;8.05;100.00;98914.03;5060691;28;20475;-79
2023/01/15 10:53:46;;;;;;;5.97;2.03;;;;;;;8.07;100.00;98920.75;5074766;28;20525;-78
2023/01/15 10:56:34;;;;;;;4.18;2.25;;;;;;;8.15;100.00;98921.84;5094111;28;20051;-78
2023/01/15 10:59:07;;;;;;;3.38;2.00;;;;;;;8.23;100.00;98908.72;5094217;28;20385;-77
2023/01/15 11:01:37;;;;;;;8.60;2.42;;;;;;;8.28;100.00;98907.19;5093514;28;20499;-78
2023/01/15 11:04:13;;;;;;;4.32;2.28;;;;;;;8.35;100.00;98913.19;5092958;28;20050;-78
2023/01/15 11:06:39;;;;;;;2.92;1.92;;;;;;;8.43;100.00;98915.50;5092945;28;20480;-77
2023/01/15 11:09:06;;;;;;;8.80;2.42;;;;;;;8.48;100.00;98897.69;5093175;28;20027;-77
2023/01/15 11:20:21;;;;;;;3.53;2.25;;;;;;;8.72;100.00;98898.00;5094118;28;20492;-76
2023/01/15 11:22:51;;;;;;;3.50;2.22;;;;;;;8.78;100.00;98885.31;5093837;28;20456;-77
2023/01/15 11:25:30;;;;;;;4.90;3.10;;;;;;;8.81;100.00;98877.81;5075642;28;20020;-77
2023/01/15 11:27:57;;;;;;;6.35;2.47;;;;;;;8.84;100.00;98876.78;5075767;28;20032;-76
2023/01/15 11:30:33;;;;;;;5.10;2.65;;;;;;;8.88;100.00;98863.06;5094093;28;20072;-78
2023/01/15 11:33:22;;;;;;;4.13;2.40;;;;;;;9.01;100.00;98886.13;5076112;28;20040;-75
2023/01/15 11:35:57;;;;;;;3.58;2.47;;;;;;;8.94;100.00;98900.88;5093874;28;20059;-76
2023/01/15 11:38:25;;;;;;;2.67;1.85;;;;;;;8.94;100.00;98902.97;5060739;28;20024;-75
2023/01/15 11:40:53;;;;;;;4.75;2.80;;;;;;;8.90;100.00;98900.38;5059371;28;20032;-76
2023/01/15 11:52:12;;;;;;;4.28;2.90;;;;;;;9.04;100.00;98927.06;5093858;28;20387;-77
2023/01/15 11:54:42;;;;;;;5.40;3.35;;;;;;;8.99;100.00;98930.69;5075638;28;20028;-78
2023/01/15 11:57:09;;;;;;;4.43;2.55;;;;;;;8.94;100.00;98932.22;5058270;28;20078;-77
2023/01/15 11:59:36;;;;;;;4.45;2.75;;;;;;;8.85;100.00;98941.03;5075479;28;20494;-77
2023/01/15 12:02:20;;;;;;;5.30;2.97;;;;;;;8.74;100.00;98938.13;5075579;28;20475;-77
2023/01/15 12:04:55;;;;;;;3.85;2.92;;;;;;;8.64;100.00;98960.38;5075289;28;20115;-77
2023/01/15 12:07:29;;;;;;;7.43;2.95;;;;;;;8.64;100.00;98948.19;5058901;28;20503;-77
2023/01/15 12:10:18;;;;;;;4.93;2.45;;;;;;;8.57;100.00;98958.00;5095203;28;20020;-77
2023/01/15 12:13:20;;;;;;;3.97;2.45;;;;;;;8.55;100.00;98951.28;5094306;28;20020;-77
2023/01/15 12:16:02;;;;;;;7.65;2.85;;;;;;;8.56;100.00;98953.59;5092493;28;20024;-77
2023/01/15 12:18:52;;;;;;;3.47;2.45;;;;;;;8.58;100.00;98947.41;5075580;28;20051;-76
2023/01/15 12:21:43;;;;;;;4.25;3.05;;;;;;;8.52;100.00;98957.97;5075101;28;20427;-77
2023/01/15 12:24:31;;;;;;;3.38;2.22;;;;;;;8.47;100.00;98961.59;5093304;28;20066;-77
2023/01/15 12:27:23;;;;;;;3.58;2.50;;;;;;;8.39;100.00;98964.16;5075171;28;20115;-76
2023/01/15 12:30:17;;;;;;;3.75;2.42;;;;;;;8.27;100.00;98969.00;5071467;28;20490;-76
2023/01/15 12:33:00;;;;;;;3.80;2.70;;;;;;;8.24;100.00;98977.78;5073016;28;20025;-77
2023/01/15 12:35:31;;;;;;;4.25;2.63;;;;;;;8.14;100.00;98977.19;5072577;28;20024;-77
2023/01/15 12:38:16;;;;;;;4.30;2.60;;;;;;;8.14;100.00;98979.25;5071670;28;20025;-77
2023/01/15 12:40:48;;;;;;;3.80;2.95;;;;;;;8.20;100.00;98988.63;5073070;28;20377;-77
2023/01/15 12:46:27;;;;;;;5.40;3.50;;;;;;;8.06;100.00;99013.09;5072304;28;20086;-77